Time;durP1;ratioP1;P1;durP2;ratioP2;P2;SDS_P1;SDS_P2;PMS_P1;PMS_P2;Temp;Humidity;BMP_temperature;BMP_pressure;BME280_temperature;BME280_humidity;BME280_pressure;Samples;Min_cycle;Max_cycle;Signal;HPM_P1;HPM_P2
2023/09/12 00:01:09;;;;;;;8.93;8.13;;;24.80;68.80;;;;;;5051365;28;20233;-61
2023/09/12 00:03:34;;;;;;;9.43;8.63;;;24.80;68.80;;;;;;5052401;28;20175;-61
2023/09/12 00:06:01;;;;;;;8.85;8.13;;;24.80;69.70;;;;;;5052261;28;20175;-60
2023/09/12 00:08:26;;;;;;;9.75;8.82;;;24.80;68.80;;;;;;5051594;28;20206;-60
2023/09/12 00:11:13;;;;;;;9.35;8.52;;;24.80;68.80;;;;;;5051906;28;20618;-60
2023/09/12 00:13:39;;;;;;;9.32;8.23;;;24.80;68.80;;;;;;5051343;28;20229;-61
2023/09/12 00:16:05;;;;;;;9.05;8.25;;;24.80;68.80;;;;;;5052153;28;20179;-60
2023/09/12 00:18:31;;;;;;;9.05;8.25;;;24.80;68.80;;;;;;5051863;28;20206;-60
2023/09/12 00:20:59;;;;;;;9.13;8.35;;;24.80;68.80;;;;;;5051316;28;20179;-60
2023/09/12 00:23:24;;;;;;;9.23;8.40;;;24.80;68.80;;;;;;5052276;28;20180;-60
2023/09/12 00:25:51;;;;;;;9.40;8.50;;;24.80;68.80;;;;;;5052137;28;20241;-60
2023/09/12 00:28:17;;;;;;;8.98;8.07;;;24.70;68.80;;;;;;5051012;28;20175;-60
2023/09/12 00:30:43;;;;;;;9.05;8.18;;;24.80;68.80;;;;;;5052321;28;20222;-60
2023/09/12 00:33:08;;;;;;;10.10;9.18;;;24.80;68.80;;;;;;5052025;28;20194;-60
2023/09/12 00:35:34;;;;;;;9.20;8.40;;;24.80;68.80;;;;;;5051186;28;20653;-60
2023/09/12 00:37:59;;;;;;;8.27;7.57;;;24.80;68.90;;;;;;5054047;28;20183;-60
2023/09/12 00:40:25;;;;;;;9.20;8.40;;;24.80;68.80;;;;;;5055252;28;20682;-60
2023/09/12 00:42:50;;;;;;;8.88;8.15;;;24.80;68.80;;;;;;5054890;28;20179;-60
2023/09/12 00:45:16;;;;;;;9.25;8.43;;;24.80;68.90;;;;;;5055173;28;20252;-60
2023/09/12 00:47:41;;;;;;;8.85;8.05;;;24.80;68.80;;;;;;5055593;28;20176;-60
2023/09/12 00:50:07;;;;;;;9.27;8.48;;;24.80;68.90;;;;;;5053447;28;20167;-60
2023/09/12 00:52:33;;;;;;;9.18;8.27;;;24.80;68.90;;;;;;5054130;28;20179;-60
2023/09/12 00:54:58;;;;;;;9.25;8.35;;;24.80;68.90;;;;;;5055190;28;20171;-60
2023/09/12 00:57:24;;;;;;;8.50;7.80;;;24.80;68.90;;;;;;5054378;28;20249;-59
2023/09/12 00:59:50;;;;;;;8.80;8.00;;;24.80;68.80;;;;;;5055077;28;20597;-60
2023/09/12 01:02:16;;;;;;;9.63;8.73;;;24.80;68.90;;;;;;5053928;28;20179;-60
2023/09/12 01:04:42;;;;;;;9.70;8.80;;;24.70;68.80;;;;;;5054611;28;20171;-60
2023/09/12 01:07:07;;;;;;;9.38;8.57;;;24.70;69.00;;;;;;5054919;28;20175;-60
2023/09/12 01:09:33;;;;;;;9.65;8.75;;;24.80;68.90;;;;;;5053036;28;20237;-60
2023/09/12 01:12:02;;;;;;;8.05;7.45;;;24.80;68.80;;;;;;5054711;28;20240;-60
2023/09/12 01:14:28;;;;;;;10.10;9.23;;;24.70;68.80;;;;;;5053942;28;20175;-60
2023/09/12 01:16:53;;;;;;;8.70;8.00;;;24.70;68.80;;;;;;5053245;28;20175;-60
2023/09/12 01:19:19;;;;;;;8.88;8.07;;;24.70;68.80;;;;;;5054583;28;20577;-59
2023/09/12 01:21:57;;;;;;;9.63;8.73;;;24.70;68.80;;;;;;5054957;28;20231;-60
2023/09/12 01:24:49;;;;;;;9.40;8.57;;;24.70;68.80;;;;;;5052808;28;20175;-61
2023/09/12 01:27:21;;;;;;;9.23;8.43;;;24.70;68.80;;;;;;5054646;28;20189;-60
2023/09/12 01:29:47;;;;;;;9.52;8.73;;;24.70;68.80;;;;;;5053533;28;20201;-60
2023/09/12 01:32:13;;;;;;;9.45;8.55;;;24.70;69.60;;;;;;5052530;28;20183;-60
2023/09/12 01:34:39;;;;;;;8.95;8.15;;;24.70;68.80;;;;;;5053405;28;20189;-60
2023/09/12 01:37:05;;;;;;;9.80;8.88;;;24.70;68.80;;;;;;5054569;28;20266;-60
2023/09/12 01:39:30;;;;;;;9.00;8.18;;;24.70;68.80;;;;;;5053615;28;20261;-60
2023/09/12 01:41:56;;;;;;;9.35;8.55;;;24.70;69.60;;;;;;5053247;28;20652;-60
2023/09/12 01:44:23;;;;;;;9.80;8.85;;;24.70;68.80;;;;;;5053058;28;20171;-60
2023/09/12 01:46:49;;;;;;;9.30;8.40;;;24.70;68.80;;;;;;5053568;28;20642;-60
2023/09/12 01:49:15;;;;;;;9.15;8.25;;;24.70;68.80;;;;;;5052028;28;20183;-60
2023/09/12 01:51:40;;;;;;;9.73;8.93;;;24.70;68.80;;;;;;5052380;28;20178;-60
2023/09/12 01:54:06;;;;;;;9.40;8.57;;;24.70;68.90;;;;;;5053067;28;20179;-60
2023/09/12 01:56:31;;;;;;;9.77;8.98;;;24.70;68.80;;;;;;5052933;28;20182;-60
2023/09/12 01:58:57;;;;;;;9.20;8.40;;;24.70;68.80;;;;;;5052023;28;20211;-60
2023/09/12 02:01:24;;;;;;;8.35;7.65;;;24.70;68.80;;;;;;5052934;28;20206;-60
2023/09/12 02:03:50;;;;;;;9.00;8.20;;;24.60;68.80;;;;;;5054012;28;20167;-60
2023/09/12 02:06:15;;;;;;;8.80;8.07;;;24.70;69.60;;;;;;5053149;28;20179;-60
2023/09/12 02:08:41;;;;;;;8.75;7.95;;;24.70;68.80;;;;;;5054090;28;20177;-60
2023/09/12 02:11:07;;;;;;;9.07;8.27;;;24.70;68.80;;;;;;5053857;28;20262;-60
2023/09/12 02:13:32;;;;;;;8.90;8.10;;;24.70;68.80;;;;;;5053008;28;20271;-60
2023/09/12 02:16:02;;;;;;;9.40;8.60;;;24.60;68.70;;;;;;5053522;28;20175;-60
2023/09/12 02:18:28;;;;;;;9.88;9.02;;;24.70;68.80;;;;;;5053478;28;20175;-60
2023/09/12 02:20:53;;;;;;;8.82;8.13;;;24.60;68.70;;;;;;5053034;28;20174;-60
2023/09/12 02:23:19;;;;;;;8.30;7.60;;;24.60;68.70;;;;;;5053315;28;20190;-60
2023/09/12 02:25:44;;;;;;;8.85;8.00;;;24.60;68.70;;;;;;5053817;28;20174;-60
2023/09/12 02:28:10;;;;;;;9.45;8.55;;;24.60;68.70;;;;;;5052737;28;20638;-60
2023/09/12 02:30:40;;;;;;;9.20;8.40;;;24.70;68.80;;;;;;5053445;28;20630;-60
2023/09/12 02:33:05;;;;;;;8.40;7.70;;;24.70;68.80;;;;;;5053207;28;20205;-60
2023/09/12 02:35:31;;;;;;;8.70;8.00;;;24.60;68.80;;;;;;5052658;28;20167;-60
2023/09/12 02:37:56;;;;;;;8.50;7.80;;;24.60;68.80;;;;;;5053396;28;20217;-60
2023/09/12 02:40:22;;;;;;;8.77;8.07;;;24.60;68.70;;;;;;5053081;28;20217;-60
2023/09/12 02:42:47;;;;;;;8.63;7.90;;;24.60;68.70;;;;;;5052800;28;20657;-60
2023/09/12 02:45:13;;;;;;;8.75;7.95;;;24.60;68.70;;;;;;5053158;28;20638;-60
2023/09/12 02:47:38;;;;;;;8.45;7.75;;;24.60;68.70;;;;;;5053224;28;20411;-60
2023/09/12 02:50:04;;;;;;;8.57;7.88;;;24.60;68.70;;;;;;5052434;28;20179;-60
2023/09/12 02:52:30;;;;;;;9.02;8.23;;;24.60;68.70;;;;;;5053435;28;20182;-60
2023/09/12 02:54:55;;;;;;;9.57;8.68;;;24.60;68.60;;;;;;5053182;28;20179;-60
2023/09/12 02:57:21;;;;;;;9.07;8.30;;;24.60;68.70;;;;;;5052404;28;20171;-59
2023/09/12 02:59:47;;;;;;;8.60;7.80;;;24.60;68.70;;;;;;5052791;28;20223;-60
2023/09/12 03:02:12;;;;;;;9.02;8.23;;;24.60;68.60;;;;;;5051880;28;20169;-60
2023/09/12 03:04:38;;;;;;;8.20;7.50;;;24.60;68.60;;;;;;5053240;28;20175;-60
2023/09/12 03:07:03;;;;;;;8.38;7.65;;;24.60;68.60;;;;;;5053011;28;20170;-60
2023/09/12 03:09:29;;;;;;;8.02;7.32;;;24.60;68.70;;;;;;5052268;28;20175;-60
2023/09/12 03:11:55;;;;;;;8.88;8.07;;;24.60;68.60;;;;;;5052956;28;20167;-60
2023/09/12 03:14:20;;;;;;;8.55;7.85;;;24.60;68.60;;;;;;5052578;28;20207;-60
2023/09/12 03:16:46;;;;;;;8.75;7.95;;;24.60;68.60;;;;;;5052130;28;20182;-60
2023/09/12 03:19:11;;;;;;;8.75;8.05;;;24.60;68.60;;;;;;5052659;28;20218;-60
2023/09/12 03:21:37;;;;;;;7.63;7.03;;;24.60;68.60;;;;;;5052851;28;20163;-60
2023/09/12 03:24:02;;;;;;;7.88;7.28;;;24.60;68.60;;;;;;5051718;28;20167;-60
2023/09/12 03:26:28;;;;;;;7.50;6.90;;;24.60;68.60;;;;;;5052735;28;20175;-60
2023/09/12 03:28:53;;;;;;;8.45;7.68;;;24.60;68.60;;;;;;5052951;28;20171;-59
2023/09/12 03:31:19;;;;;;;7.80;7.20;;;24.60;68.60;;;;;;5051623;28;20228;-61
2023/09/12 03:33:49;;;;;;;8.65;7.95;;;24.60;69.40;;;;;;5052693;28;20182;-60
2023/09/12 03:36:15;;;;;;;7.55;6.85;;;24.60;68.60;;;;;;5052572;28;20183;-62
2023/09/12 03:38:40;;;;;;;7.82;7.13;;;24.60;68.50;;;;;;5051913;28;20207;-60
2023/09/12 03:41:06;;;;;;;7.65;7.05;;;24.60;68.50;;;;;;5052428;28;20595;-60
2023/09/12 03:43:33;;;;;;;8.07;7.30;;;24.50;68.40;;;;;;5052526;28;20179;-60
2023/09/12 03:45:58;;;;;;;8.57;7.88;;;24.60;68.60;;;;;;5051479;28;20186;-60
2023/09/12 03:48:24;;;;;;;8.02;7.32;;;24.60;68.50;;;;;;5051141;28;20175;-60
2023/09/12 03:50:49;;;;;;;7.55;6.95;;;24.50;68.40;;;;;;5052434;28;20262;-60
2023/09/12 03:53:15;;;;;;;7.88;7.18;;;24.50;69.30;;;;;;5051441;28;20182;-60
2023/09/12 03:55:41;;;;;;;8.18;7.43;;;24.60;68.50;;;;;;5052698;28;20190;-60
2023/09/12 03:58:07;;;;;;;7.75;7.15;;;24.50;69.30;;;;;;5051166;28;20172;-60
2023/09/12 04:00:32;;;;;;;7.70;7.05;;;24.50;68.40;;;;;;5051196;28;20235;-60
2023/09/12 04:02:58;;;;;;;7.88;7.18;;;24.60;68.50;;;;;;5052392;28;20175;-60
2023/09/12 04:05:25;;;;;;;7.78;6.97;;;24.50;68.40;;;;;;5051632;28;20179;-60
2023/09/12 04:07:50;;;;;;;8.27;7.57;;;24.50;68.40;;;;;;5052490;28;20251;-60
2023/09/12 04:10:18;;;;;;;7.38;6.78;;;24.50;68.40;;;;;;5051940;28;20254;-60
2023/09/12 04:12:44;;;;;;;6.82;6.32;;;24.50;68.40;;;;;;5053410;28;20183;-60
2023/09/12 04:15:09;;;;;;;7.90;7.30;;;24.50;68.40;;;;;;5055818;28;20229;-60
2023/09/12 04:17:35;;;;;;;8.13;7.47;;;24.50;68.40;;;;;;5056141;28;20179;-60
2023/09/12 04:20:00;;;;;;;7.68;7.07;;;24.50;68.40;;;;;;5054913;28;20207;-60
2023/09/12 04:22:28;;;;;;;7.97;7.38;;;24.50;68.40;;;;;;5056003;28;20258;-60
2023/09/12 04:24:53;;;;;;;7.70;7.10;;;24.50;68.40;;;;;;5055931;28;20198;-59
2023/09/12 04:27:19;;;;;;;6.85;6.25;;;24.50;68.30;;;;;;5054788;28;20627;-60
2023/09/12 04:29:47;;;;;;;7.47;6.88;;;24.50;68.40;;;;;;5055852;28;20183;-61
2023/09/12 04:32:13;;;;;;;7.40;6.80;;;24.50;68.40;;;;;;5055398;28;20179;-59
2023/09/12 04:34:41;;;;;;;7.63;7.03;;;24.50;68.40;;;;;;5055163;28;20175;-60
2023/09/12 04:37:07;;;;;;;6.95;6.45;;;24.50;68.30;;;;;;5055476;28;20171;-60
2023/09/12 04:39:33;;;;;;;7.82;7.13;;;24.50;68.40;;;;;;5055529;28;20265;-60
2023/09/12 04:41:58;;;;;;;7.85;7.15;;;24.50;68.40;;;;;;5054617;28;20167;-60
2023/09/12 04:44:24;;;;;;;7.72;7.03;;;24.50;68.40;;;;;;5055242;28;20237;-60
2023/09/12 04:46:49;;;;;;;7.10;6.60;;;24.50;68.30;;;;;;5055645;28;20228;-60
2023/09/12 04:49:15;;;;;;;6.90;6.32;;;24.50;68.30;;;;;;5054546;28;20262;-59
2023/09/12 04:51:42;;;;;;;7.53;6.70;;;24.50;68.40;;;;;;5055512;28;20175;-59
2023/09/12 04:54:08;;;;;;;8.02;7.38;;;24.50;68.40;;;;;;5055038;28;20190;-59
2023/09/12 04:56:33;;;;;;;8.00;7.30;;;24.50;68.40;;;;;;5054445;28;20171;-59
2023/09/12 04:58:59;;;;;;;6.93;6.43;;;24.50;68.40;;;;;;5054536;28;20214;-59
2023/09/12 05:01:25;;;;;;;7.45;6.85;;;24.50;68.40;;;;;;5055460;28;20179;-59
2023/09/12 05:03:51;;;;;;;7.15;6.55;;;24.50;68.40;;;;;;5054297;28;20640;-59
2023/09/12 05:06:16;;;;;;;7.32;6.72;;;24.50;68.40;;;;;;5054886;28;20229;-60
2023/09/12 05:08:42;;;;;;;7.15;6.65;;;24.50;68.40;;;;;;5054343;28;20198;-60
2023/09/12 05:11:08;;;;;;;7.28;6.68;;;24.50;68.40;;;;;;5054855;28;20179;-60
2023/09/12 05:13:34;;;;;;;7.88;7.28;;;24.50;68.40;;;;;;5054844;28;20190;-60
2023/09/12 05:16:00;;;;;;;7.05;6.50;;;24.50;68.40;;;;;;5054218;28;20534;-58
2023/09/12 05:18:25;;;;;;;7.60;7.00;;;24.50;68.40;;;;;;5054922;28;20183;-58
2023/09/12 05:20:51;;;;;;;7.18;6.63;;;24.40;69.20;;;;;;5054941;28;20210;-58
2023/09/12 05:23:16;;;;;;;7.55;6.93;;;24.50;68.40;;;;;;5053035;28;20191;-60
2023/09/12 05:25:42;;;;;;;6.95;6.28;;;24.50;68.50;;;;;;5054371;28;20186;-59
2023/09/12 05:28:07;;;;;;;7.20;6.65;;;24.40;68.40;;;;;;5054116;28;20171;-59
2023/09/12 05:30:33;;;;;;;7.32;6.63;;;24.50;69.30;;;;;;5054029;28;20175;-59
2023/09/12 05:32:58;;;;;;;7.28;6.68;;;24.50;68.40;;;;;;5054347;28;20175;-59
2023/09/12 05:35:24;;;;;;;8.20;7.57;;;24.40;68.40;;;;;;5054460;28;20214;-59
2023/09/12 05:37:50;;;;;;;8.05;7.35;;;24.50;68.40;;;;;;5053909;28;20171;-60
2023/09/12 05:40:16;;;;;;;8.13;7.43;;;24.40;68.40;;;;;;5054121;28;20218;-61
2023/09/12 05:42:41;;;;;;;7.35;6.75;;;24.40;68.40;;;;;;5054542;28;20167;-61
2023/09/12 05:45:07;;;;;;;7.72;7.10;;;24.40;68.40;;;;;;5053615;28;20171;-60
2023/09/12 05:47:33;;;;;;;7.18;6.60;;;24.50;68.40;;;;;;5054377;28;20630;-60
2023/09/12 05:49:59;;;;;;;8.57;7.78;;;24.40;68.40;;;;;;5054193;28;20171;-60
2023/09/12 05:52:25;;;;;;;7.32;6.72;;;24.40;68.40;;;;;;5053586;28;20179;-60
2023/09/12 05:54:50;;;;;;;8.63;7.93;;;24.40;68.40;;;;;;5054137;28;20171;-59
2023/09/12 05:57:16;;;;;;;8.02;7.32;;;24.40;68.40;;;;;;5053663;28;20270;-60
2023/09/12 05:59:41;;;;;;;8.52;7.82;;;24.40;68.40;;;;;;5053113;28;20313;-60
2023/09/12 06:02:09;;;;;;;7.53;6.93;;;24.40;68.40;;;;;;5053806;28;20217;-60
2023/09/12 06:04:35;;;;;;;7.85;7.22;;;24.40;68.40;;;;;;5054081;28;20183;-60
2023/09/12 06:07:04;;;;;;;7.50;6.90;;;24.40;68.40;;;;;;5053038;28;20649;-60
2023/09/12 06:09:29;;;;;;;8.27;7.63;;;24.40;68.40;;;;;;5052645;28;20179;-60
2023/09/12 06:11:55;;;;;;;8.60;7.90;;;24.40;68.50;;;;;;5053354;28;20171;-60
2023/09/12 06:14:20;;;;;;;7.90;7.20;;;24.40;68.40;;;;;;5053726;28;20207;-59
2023/09/12 06:16:46;;;;;;;9.13;8.32;;;24.40;68.40;;;;;;5054018;28;20634;-59
2023/09/12 06:19:12;;;;;;;8.32;7.60;;;24.40;68.50;;;;;;5052690;28;20205;-59
2023/09/12 06:21:37;;;;;;;8.70;8.00;;;24.40;68.40;;;;;;5053611;28;20183;-59
2023/09/12 06:24:13;;;;;;;8.60;7.90;;;24.40;68.40;;;;;;5053251;28;20252;-59
2023/09/12 06:26:39;;;;;;;8.68;7.88;;;24.40;68.40;;;;;;5052891;28;20186;-59
2023/09/12 06:29:04;;;;;;;7.63;7.00;;;24.40;68.40;;;;;;5053557;28;20171;-59
2023/09/12 06:31:30;;;;;;;8.88;8.07;;;24.40;68.40;;;;;;5053310;28;20171;-59
2023/09/12 06:33:56;;;;;;;7.90;7.22;;;24.40;68.40;;;;;;5052793;28;20176;-59
2023/09/12 06:36:23;;;;;;;9.23;8.32;;;24.40;68.40;;;;;;5052745;28;20544;-59
2023/09/12 06:38:49;;;;;;;8.75;7.95;;;24.40;68.40;;;;;;5053094;28;20203;-59
2023/09/12 06:41:15;;;;;;;8.25;7.55;;;24.50;68.50;;;;;;5052644;28;20202;-59
2023/09/12 06:43:40;;;;;;;10.10;9.13;;;24.40;68.40;;;;;;5053650;28;20175;-59
2023/09/12 06:46:06;;;;;;;8.48;7.75;;;24.50;68.50;;;;;;5052977;28;20185;-59
2023/09/12 06:48:31;;;;;;;7.93;7.28;;;24.40;68.50;;;;;;5052476;28;20186;-59
2023/09/12 06:50:57;;;;;;;9.00;8.13;;;24.40;68.50;;;;;;5053259;28;20637;-59
2023/09/12 06:53:22;;;;;;;8.95;8.25;;;24.40;68.50;;;;;;5053028;28;20605;-59
2023/09/12 06:55:48;;;;;;;8.52;7.80;;;24.40;68.50;;;;;;5052188;28;20227;-59
2023/09/12 06:58:13;;;;;;;8.40;7.70;;;24.40;68.60;;;;;;5052790;28;20221;-59
2023/09/12 07:00:39;;;;;;;8.63;7.93;;;24.40;68.60;;;;;;5052823;28;20580;-59
2023/09/12 07:03:04;;;;;;;8.18;7.53;;;24.40;68.50;;;;;;5052027;28;20167;-60
2023/09/12 07:05:30;;;;;;;10.88;8.13;;;24.50;68.80;;;;;;5052924;28;20183;-60
2023/09/12 07:07:56;;;;;;;8.90;8.10;;;24.50;68.90;;;;;;5052873;28;20218;-59
2023/09/12 07:10:22;;;;;;;8.65;7.75;;;24.50;68.80;;;;;;5051950;28;20179;-59
2023/09/12 07:12:47;;;;;;;9.57;8.77;;;24.50;68.80;;;;;;5053113;28;20226;-60
2023/09/12 07:15:13;;;;;;;8.77;8.07;;;24.50;68.80;;;;;;5051829;28;20175;-59
2023/09/12 07:17:38;;;;;;;9.35;8.48;;;24.50;68.80;;;;;;5052651;28;20186;-59
2023/09/12 07:20:10;;;;;;;8.55;7.85;;;24.50;68.80;;;;;;5052205;28;20263;-59
2023/09/12 07:22:35;;;;;;;9.77;8.85;;;24.50;68.80;;;;;;5051751;28;20179;-59
2023/09/12 07:25:01;;;;;;;8.88;8.07;;;24.50;68.80;;;;;;5052694;28;20531;-59
2023/09/12 07:27:27;;;;;;;8.48;7.80;;;24.50;68.80;;;;;;5052745;28;20537;-59
2023/09/12 07:29:53;;;;;;;9.20;8.30;;;24.50;68.80;;;;;;5051860;28;20175;-59
2023/09/12 07:32:19;;;;;;;9.32;8.52;;;24.50;68.80;;;;;;5052304;28;20175;-59
2023/09/12 07:34:48;;;;;;;9.25;8.40;;;24.50;68.80;;;;;;5052500;28;20661;-59
2023/09/12 07:37:14;;;;;;;10.18;9.27;;;24.50;68.80;;;;;;5051466;28;20182;-59
2023/09/12 07:39:39;;;;;;;13.25;9.05;;;24.50;68.80;;;;;;5052646;28;20215;-59
2023/09/12 07:42:05;;;;;;;9.60;8.60;;;24.50;68.90;;;;;;5052432;28;20206;-59
2023/09/12 07:44:30;;;;;;;9.65;8.75;;;24.50;68.80;;;;;;5051838;28;20207;-60
2023/09/12 07:46:56;;;;;;;9.48;8.57;;;24.50;68.90;;;;;;5053108;28;20218;-60
2023/09/12 07:49:21;;;;;;;11.43;9.98;;;24.50;68.90;;;;;;5056280;28;20171;-59
2023/09/12 07:51:47;;;;;;;10.88;9.80;;;24.50;68.90;;;;;;5055861;28;20171;-59
2023/09/12 07:54:13;;;;;;;9.80;8.90;;;24.50;68.90;;;;;;5056061;28;20182;-59
2023/09/12 07:56:38;;;;;;;10.48;9.43;;;24.50;68.90;;;;;;5056582;28;20178;-59
2023/09/12 07:59:04;;;;;;;10.25;9.25;;;24.50;68.90;;;;;;5055303;28;20205;-58
2023/09/12 08:01:30;;;;;;;9.98;8.98;;;24.50;68.80;;;;;;5056374;28;20187;-59
2023/09/12 08:03:55;;;;;;;8.90;8.13;;;24.50;68.90;;;;;;5056417;28;20696;-59
2023/09/12 08:06:23;;;;;;;9.77;8.93;;;24.50;69.70;;;;;;5055130;28;20178;-59
2023/09/12 08:08:49;;;;;;;11.00;10.00;;;24.50;68.80;;;;;;5056074;28;20215;-60
2023/09/12 08:11:14;;;;;;;10.10;9.18;;;24.50;68.80;;;;;;5055844;28;20199;-59
2023/09/12 08:13:40;;;;;;;10.48;9.43;;;24.50;68.90;;;;;;5055858;28;20186;-59
2023/09/12 08:16:05;;;;;;;9.88;8.98;;;24.50;68.90;;;;;;5055944;28;20193;-59
2023/09/12 08:18:31;;;;;;;10.27;9.27;;;24.50;68.90;;;;;;5055109;28;20167;-59
2023/09/12 08:20:57;;;;;;;9.70;8.80;;;24.50;68.90;;;;;;5055845;28;20296;-59
2023/09/12 08:23:22;;;;;;;10.32;9.32;;;24.50;68.90;;;;;;5055835;28;20171;-59
2023/09/12 08:25:48;;;;;;;10.25;9.27;;;24.50;68.90;;;;;;5055307;28;20171;-59
2023/09/12 08:28:14;;;;;;;9.48;8.57;;;24.50;68.90;;;;;;5055567;28;20171;-59
2023/09/12 08:30:39;;;;;;;9.50;8.70;;;24.50;68.90;;;;;;5055881;28;20179;-59
2023/09/12 08:33:06;;;;;;;9.68;8.77;;;24.50;68.80;;;;;;5054818;28;20187;-59
2023/09/12 08:35:32;;;;;;;10.25;9.25;;;24.60;68.90;;;;;;5055677;28;20515;-59
2023/09/12 08:37:58;;;;;;;9.90;9.00;;;24.50;68.80;;;;;;5055557;28;20186;-59
2023/09/12 08:40:23;;;;;;;10.15;9.23;;;24.50;68.80;;;;;;5054875;28;20301;-60
2023/09/12 08:42:49;;;;;;;9.57;8.77;;;24.50;68.90;;;;;;5055705;28;20168;-60
2023/09/12 08:45:16;;;;;;;9.32;8.55;;;24.50;68.80;;;;;;5053854;28;20190;-60
2023/09/12 08:47:43;;;;;;;9.50;8.60;;;24.50;68.90;;;;;;5054737;28;20214;-59
2023/09/12 08:50:13;;;;;;;9.13;8.32;;;24.50;68.90;;;;;;5055147;28;20213;-59
2023/09/12 08:52:40;;;;;;;9.63;8.82;;;24.50;68.80;;;;;;5055549;28;20182;-59
2023/09/12 08:55:05;;;;;;;8.85;8.15;;;24.60;68.80;;;;;;5054422;28;20626;-59
2023/09/12 08:57:32;;;;;;;9.57;8.68;;;24.60;68.80;;;;;;5055185;28;20305;-58
2023/09/12 08:59:58;;;;;;;10.95;9.95;;;24.60;68.80;;;;;;5054778;28;20230;-59
2023/09/12 09:02:24;;;;;;;10.63;9.48;;;24.60;69.00;;;;;;5054463;28;20174;-74
2023/09/12 09:04:50;;;;;;;9.43;8.63;;;24.60;69.00;;;;;;5054898;28;20258;-69
2023/09/12 09:07:15;;;;;;;10.45;9.45;;;24.60;69.00;;;;;;5054959;28;20198;-68
2023/09/12 09:09:41;;;;;;;10.20;9.30;;;24.70;69.00;;;;;;5053272;28;20178;-68
2023/09/12 09:12:08;;;;;;;10.25;9.25;;;24.70;68.90;;;;;;5054761;28;20225;-69
2023/09/12 09:14:34;;;;;;;9.75;8.95;;;24.80;68.70;;;;;;5054955;28;20253;-69
2023/09/12 09:16:59;;;;;;;9.05;8.25;;;24.80;68.70;;;;;;5053893;28;20634;-68
2023/09/12 09:19:41;;;;;;;9.65;8.75;;;24.80;68.70;;;;;;5053638;28;20749;-69
2023/09/12 09:22:07;;;;;;;10.13;9.23;;;24.80;68.80;;;;;;5053009;28;20175;-68
2023/09/12 09:24:33;;;;;;;9.43;8.52;;;24.80;68.70;;;;;;5054774;28;20183;-71
2023/09/12 09:27:00;;;;;;;9.50;8.68;;;24.90;68.70;;;;;;5053358;28;20627;-69
2023/09/12 09:29:25;;;;;;;10.18;8.85;;;24.90;68.50;;;;;;5053860;28;20260;-70
2023/09/12 09:31:51;;;;;;;9.88;8.90;;;24.90;68.50;;;;;;5054652;28;20226;-70
2023/09/12 09:34:18;;;;;;;9.38;8.50;;;25.00;68.50;;;;;;5054158;28;20679;-71
2023/09/12 09:36:48;;;;;;;8.35;7.55;;;25.00;68.60;;;;;;5053781;28;20194;-71
2023/09/12 09:39:14;;;;;;;9.60;8.70;;;25.00;68.50;;;;;;5054247;28;20288;-70
2023/09/12 09:41:39;;;;;;;9.90;8.40;;;25.00;68.50;;;;;;5054530;28;20199;-70
2023/09/12 09:44:07;;;;;;;8.57;7.88;;;24.90;68.50;;;;;;5052376;28;20175;-72
2023/09/12 09:46:33;;;;;;;9.95;8.45;;;25.00;68.60;;;;;;5052576;28;20186;-72
2023/09/12 09:48:59;;;;;;;9.55;8.55;;;25.00;68.50;;;;;;5036545;28;20568;-72
2023/09/12 09:51:25;;;;;;;9.00;8.20;;;25.00;68.50;;;;;;5053657;28;20545;-71
2023/09/12 09:53:57;;;;;;;8.40;7.70;;;25.00;68.50;;;;;;5054240;28;20185;-71
2023/09/12 09:56:23;;;;;;;8.65;7.75;;;25.00;68.50;;;;;;5054202;28;20179;-72
2023/09/12 09:58:52;;;;;;;8.35;7.65;;;25.00;68.40;;;;;;5053707;28;20211;-71
2023/09/12 10:01:28;;;;;;;8.30;7.60;;;25.00;68.40;;;;;;5053976;28;20191;-74
2023/09/12 10:04:00;;;;;;;8.63;7.72;;;25.00;68.40;;;;;;5052771;28;20175;-72
2023/09/12 10:06:26;;;;;;;9.02;8.10;;;25.00;68.60;;;;;;5052535;28;20211;-74
2023/09/12 10:08:52;;;;;;;8.75;7.88;;;24.90;68.50;;;;;;5052713;28;20175;-70
2023/09/12 10:11:18;;;;;;;8.68;7.93;;;25.00;68.40;;;;;;5052149;28;20274;-71
2023/09/12 10:13:54;;;;;;;10.93;8.43;;;25.10;68.40;;;;;;5052702;28;20187;-69
2023/09/12 10:16:39;;;;;;;8.45;7.65;;;25.10;68.30;;;;;;5052509;28;20180;-70
2023/09/12 10:19:20;;;;;;;8.95;8.15;;;25.10;68.10;;;;;;5051615;28;20206;-70
2023/09/12 10:21:53;;;;;;;8.77;7.88;;;25.10;68.10;;;;;;5052490;28;20649;-68
2023/09/12 10:24:21;;;;;;;8.90;7.20;;;25.20;68.00;;;;;;5052393;28;20171;-70
2023/09/12 10:26:46;;;;;;;8.60;7.80;;;25.20;68.00;;;;;;5051473;28;20194;-72
2023/09/12 10:29:15;;;;;;;7.78;6.97;;;25.20;68.90;;;;;;5052012;28;20203;-71
2023/09/12 10:31:41;;;;;;;8.10;7.40;;;25.20;68.00;;;;;;5053182;28;20653;-72
2023/09/12 10:34:09;;;;;;;8.75;7.82;;;25.20;68.90;;;;;;5052564;28;20179;-73
2023/09/12 10:36:39;;;;;;;8.45;7.65;;;25.20;68.00;;;;;;5052067;28;20247;-73
2023/09/12 10:39:05;;;;;;;10.27;7.95;;;25.30;67.90;;;;;;5053117;28;20673;-67
2023/09/12 10:41:30;;;;;;;8.70;7.90;;;25.30;67.90;;;;;;5051435;28;20172;-68
2023/09/12 10:43:56;;;;;;;9.07;7.85;;;25.30;67.90;;;;;;5053457;28;20222;-68
2023/09/12 10:46:22;;;;;;;7.60;6.90;;;25.30;67.90;;;;;;5051232;28;20178;-68
2023/09/12 10:48:48;;;;;;;7.80;7.00;;;25.40;67.80;;;;;;5053153;28;20240;-68
2023/09/12 10:51:13;;;;;;;8.75;7.95;;;25.40;67.70;;;;;;5053111;28;20265;-67
2023/09/12 10:53:45;;;;;;;8.10;7.30;;;25.40;67.60;;;;;;5051193;28;20634;-68
2023/09/12 10:56:18;;;;;;;8.13;7.25;;;25.50;67.70;;;;;;5052932;28;20618;-67
2023/09/12 10:59:04;;;;;;;8.15;7.35;;;25.40;67.60;;;;;;5052975;28;20536;-68
2023/09/12 11:01:33;;;;;;;8.63;7.72;;;25.40;67.80;;;;;;5044835;28;20195;-68
2023/09/12 11:04:28;;;;;;;8.32;7.55;;;25.40;67.60;;;;;;5053395;28;20240;-68
2023/09/12 11:06:53;;;;;;;9.38;8.43;;;25.50;67.50;;;;;;5050875;28;20184;-68
2023/09/12 11:09:25;;;;;;;8.57;7.78;;;25.50;67.30;;;;;;5051851;28;20229;-69
2023/09/12 11:11:56;;;;;;;9.90;8.23;;;25.60;67.40;;;;;;5053009;28;20179;-68
2023/09/12 11:14:24;;;;;;;8.57;7.78;;;25.60;67.30;;;;;;5051943;28;20503;-68
2023/09/12 11:17:07;;;;;;;9.15;8.25;;;25.60;67.30;;;;;;5052797;28;20275;-67
2023/09/12 11:19:51;;;;;;;9.27;8.38;;;25.60;67.30;;;;;;5052585;28;20245;-67
2023/09/12 11:22:27;;;;;;;8.68;7.75;;;25.60;67.30;;;;;;5051642;28;20179;-67
2023/09/12 11:24:55;;;;;;;8.45;7.65;;;25.60;67.30;;;;;;5052749;28;20178;-67
2023/09/12 11:27:22;;;;;;;8.63;7.82;;;25.60;67.50;;;;;;5052313;28;20703;-67
2023/09/12 11:29:48;;;;;;;8.48;7.68;;;25.60;68.50;;;;;;5051797;28;20183;-68
2023/09/12 11:32:30;;;;;;;8.77;8.00;;;25.50;67.70;;;;;;5051122;28;20171;-69
2023/09/12 11:34:55;;;;;;;8.75;7.95;;;25.50;67.80;;;;;;5052567;28;20192;-68
2023/09/12 11:37:25;;;;;;;8.35;7.63;;;25.60;67.60;;;;;;5051705;28;20542;-69
2023/09/12 11:39:52;;;;;;;8.35;7.55;;;25.60;67.30;;;;;;5052437;28;20222;-68
2023/09/12 11:42:18;;;;;;;8.13;7.32;;;25.60;67.30;;;;;;5052020;28;20661;-68
2023/09/12 11:44:46;;;;;;;7.95;7.20;;;25.60;67.40;;;;;;5051857;28;20264;-69
2023/09/12 11:47:12;;;;;;;8.27;7.35;;;25.70;67.40;;;;;;5052012;28;20186;-69
2023/09/12 11:49:39;;;;;;;8.82;6.80;;;25.80;67.20;;;;;;5050756;28;20179;-71
2023/09/12 11:52:09;;;;;;;8.20;7.30;;;25.80;67.10;;;;;;5052208;28;20178;-68
2023/09/12 11:54:34;;;;;;;7.90;7.20;;;25.80;67.00;;;;;;5052263;28;20656;-68
2023/09/12 11:57:00;;;;;;;6.85;6.25;;;25.80;66.60;;;;;;5051585;28;20266;-67
2023/09/12 11:59:26;;;;;;;7.97;7.25;;;25.80;66.60;;;;;;5050638;28;20701;-68
2023/09/12 12:01:52;;;;;;;7.95;7.05;;;25.90;66.50;;;;;;5051937;28;20264;-70
2023/09/12 12:04:17;;;;;;;7.25;6.57;;;25.80;66.50;;;;;;5050294;28;20218;-70
2023/09/12 12:06:43;;;;;;;7.22;6.57;;;25.80;66.70;;;;;;5051217;28;20562;-71
2023/09/12 12:09:09;;;;;;;8.63;6.68;;;25.70;66.90;;;;;;5034422;28;20179;-69
2023/09/12 12:11:34;;;;;;;7.68;6.97;;;25.60;66.90;;;;;;5051523;28;20210;-69
2023/09/12 12:14:16;;;;;;;7.07;6.40;;;25.60;67.10;;;;;;5052081;28;20246;-68
2023/09/12 12:16:42;;;;;;;6.70;6.10;;;25.60;67.10;;;;;;5052094;28;20528;-68
2023/09/12 12:19:09;;;;;;;6.68;6.07;;;25.60;67.00;;;;;;5051297;28;20202;-67
2023/09/12 12:21:35;;;;;;;6.75;6.15;;;25.70;66.90;;;;;;5051865;28;20703;-68
2023/09/12 12:24:01;;;;;;;7.07;6.38;;;25.80;66.80;;;;;;5050810;28;20183;-67
2023/09/12 12:26:26;;;;;;;7.03;6.43;;;25.70;66.70;;;;;;5051334;28;20258;-67
2023/09/12 12:28:53;;;;;;;6.25;5.75;;;25.80;66.60;;;;;;5052050;28;20330;-67
2023/09/12 12:31:18;;;;;;;7.43;5.90;;;25.80;66.50;;;;;;5051981;28;20214;-69
2023/09/12 12:33:49;;;;;;;6.40;5.82;;;25.80;66.30;;;;;;5052098;28;20233;-69
2023/09/12 12:36:14;;;;;;;6.40;5.80;;;25.90;66.40;;;;;;5055438;28;20175;-69
2023/09/12 12:38:43;;;;;;;7.15;6.47;;;25.80;66.30;;;;;;5037717;28;20645;-69
2023/09/12 12:41:09;;;;;;;6.78;6.05;;;25.90;67.40;;;;;;5053852;28;20257;-69
2023/09/12 12:43:34;;;;;;;6.10;5.60;;;25.90;66.50;;;;;;5054333;28;20328;-68